Time;durP1;ratioP1;P1;durP2;ratioP2;P2;SDS_P1;SDS_P2;PMS_P1;PMS_P2;Temp;Humidity;BMP_temperature;BMP_pressure;BME280_temperature;BME280_humidity;BME280_pressure;Samples;Min_cycle;Max_cycle;Signal;HPM_P1;HPM_P2
2022/08/21 00:02:21;;;;;;;0.73;0.52;;;15.40;99.90;;;;;;6211355;23;20009;-74
2022/08/21 00:04:47;;;;;;;0.60;0.60;;;15.40;99.90;;;;;;6186482;23;20017;-72
2022/08/21 00:07:13;;;;;;;;;;;15.30;99.90;;;;;;6211742;23;20024;-73
2022/08/21 00:09:39;;;;;;;0.55;0.50;;;15.20;99.90;;;;;;6213600;23;19916;-83
2022/08/21 00:12:05;;;;;;;1.02;0.55;;;15.20;99.90;;;;;;6214651;23;20024;-83
2022/08/21 00:14:32;;;;;;;0.60;0.60;;;15.20;99.90;;;;;;6213737;23;20016;-84
2022/08/21 00:16:58;;;;;;;1.50;0.52;;;15.20;99.90;;;;;;6189031;23;20009;-83
2022/08/21 00:19:24;;;;;;;1.00;0.50;;;15.10;99.90;;;;;;6214259;23;20022;-83
2022/08/21 00:21:54;;;;;;;0.90;0.57;;;15.10;99.90;;;;;;6213870;23;20087;-85
2022/08/21 00:24:22;;;;;;;0.52;0.45;;;15.10;99.90;;;;;;6189246;23;20012;-84
2022/08/21 00:26:48;;;;;;;0.90;0.60;;;15.00;99.90;;;;;;6215300;23;20013;-83
2022/08/21 00:29:14;;;;;;;;;;;15.00;99.90;;;;;;6214621;23;20020;-84
2022/08/21 00:31:41;;;;;;;1.98;0.90;;;15.00;99.90;;;;;;6213942;23;20249;-84
2022/08/21 00:34:07;;;;;;;0.90;0.50;;;14.90;99.90;;;;;;6188663;23;20015;-83
2022/08/21 00:36:34;;;;;;;0.60;0.40;;;14.90;99.90;;;;;;6214057;23;20017;-84
2022/08/21 00:39:00;;;;;;;0.85;0.50;;;14.80;99.90;;;;;;6214072;23;20015;-82
2022/08/21 00:41:26;;;;;;;0.43;0.40;;;14.70;99.90;;;;;;6214359;23;20116;-82
2022/08/21 00:43:53;;;;;;;0.43;0.40;;;14.70;99.90;;;;;;6214028;23;20017;-83
2022/08/21 00:46:19;;;;;;;0.88;0.57;;;14.60;99.90;;;;;;6213971;23;20091;-82
2022/08/21 00:48:45;;;;;;;1.10;0.63;;;14.60;99.90;;;;;;6213956;23;20130;-82
2022/08/21 00:51:15;;;;;;;0.70;0.65;;;14.50;99.90;;;;;;6213970;23;20507;-83
2022/08/21 00:53:44;;;;;;;1.48;0.70;;;14.50;99.90;;;;;;6214017;23;20016;-82
2022/08/21 00:56:11;;;;;;;0.85;0.73;;;14.40;99.90;;;;;;6189191;23;20055;-82
2022/08/21 00:58:40;;;;;;;1.25;0.77;;;14.40;99.90;;;;;;6218882;23;20008;-83
2022/08/21 01:01:08;;;;;;;0.70;0.55;;;14.30;99.90;;;;;;6214106;23;20016;-83
2022/08/21 01:03:35;;;;;;;1.98;0.90;;;14.20;99.90;;;;;;6213976;23;20116;-83
2022/08/21 01:06:01;;;;;;;0.82;0.63;;;14.20;99.90;;;;;;6213651;23;20021;-83
2022/08/21 01:08:28;;;;;;;0.98;0.70;;;14.10;99.90;;;;;;6213759;23;20430;-83
2022/08/21 01:10:56;;;;;;;0.85;0.60;;;14.20;99.90;;;;;;6213527;23;20017;-83
2022/08/21 01:13:24;;;;;;;0.88;0.60;;;14.10;99.90;;;;;;6189341;23;20017;-83
2022/08/21 01:15:52;;;;;;;0.75;0.60;;;14.20;99.90;;;;;;6213625;23;20342;-83
2022/08/21 01:18:19;;;;;;;0.90;0.63;;;14.10;99.90;;;;;;6214153;23;20068;-83
2022/08/21 01:21:00;;;;;;;0.98;0.60;;;14.10;99.90;;;;;;6213860;23;20012;-82
2022/08/21 01:23:26;;;;;;;1.38;0.60;;;14.10;99.90;;;;;;6213727;23;20020;-83
2022/08/21 01:25:51;;;;;;;0.52;0.50;;;14.10;99.90;;;;;;6213988;23;20016;-83
2022/08/21 01:28:19;;;;;;;0.90;0.60;;;14.10;99.90;;;;;;6188752;23;20743;-82
2022/08/21 01:30:44;;;;;;;1.10;0.70;;;14.20;99.90;;;;;;6213588;23;20012;-82
2022/08/21 01:33:10;;;;;;;1.15;0.80;;;14.20;99.90;;;;;;6212772;23;20020;-74
2022/08/21 01:35:37;;;;;;;1.63;0.65;;;14.20;99.90;;;;;;6211408;23;20729;-74
2022/08/21 01:38:03;;;;;;;;;;;14.10;99.90;;;;;;6186996;23;20023;-74
2022/08/21 01:40:28;;;;;;;1.05;0.70;;;14.20;99.90;;;;;;6211508;23;19911;-73
2022/08/21 01:42:54;;;;;;;1.40;0.60;;;14.20;99.90;;;;;;6186510;23;20083;-74
2022/08/21 01:45:20;;;;;;;1.00;0.70;;;14.10;99.90;;;;;;6210926;23;20071;-74
2022/08/21 01:47:46;;;;;;;0.68;0.55;;;14.20;99.90;;;;;;6187524;23;20024;-74
2022/08/21 01:50:16;;;;;;;0.73;0.60;;;14.30;99.90;;;;;;6213099;23;20017;-74
2022/08/21 01:52:42;;;;;;;1.10;0.70;;;14.30;99.90;;;;;;6213068;23;20566;-72
2022/08/21 01:55:09;;;;;;;1.40;0.95;;;14.20;99.90;;;;;;6212572;23;20052;-73
2022/08/21 01:57:35;;;;;;;0.80;0.52;;;14.40;99.90;;;;;;6187779;23;20012;-73
2022/08/21 02:00:03;;;;;;;1.95;0.80;;;14.30;99.90;;;;;;6212858;23;20017;-72
2022/08/21 02:02:29;;;;;;;1.08;0.70;;;14.30;99.90;;;;;;6212964;23;20416;-73
2022/08/21 02:04:54;;;;;;;0.95;0.65;;;14.40;99.90;;;;;;6213324;23;20055;-73
2022/08/21 02:07:21;;;;;;;1.10;0.65;;;14.30;99.90;;;;;;6213596;23;20020;-73
2022/08/21 02:09:46;;;;;;;;;;;14.40;99.90;;;;;;6213371;23;20087;-73
2022/08/21 02:12:12;;;;;;;0.65;0.43;;;14.40;99.90;;;;;;6212919;23;20417;-73
2022/08/21 02:14:38;;;;;;;2.13;0.70;;;14.40;99.90;;;;;;6212552;23;20021;-73
2022/08/21 02:17:04;;;;;;;2.53;0.70;;;14.40;99.90;;;;;;6187709;23;20020;-73
2022/08/21 02:19:30;;;;;;;1.00;0.82;;;14.40;99.90;;;;;;6187425;23;20096;-74
2022/08/21 02:21:55;;;;;;;1.15;0.70;;;14.40;99.90;;;;;;6212908;23;20016;-73
2022/08/21 02:24:21;;;;;;;0.60;0.60;;;14.40;99.90;;;;;;6212582;23;20020;-73
2022/08/21 02:26:47;;;;;;;1.27;0.80;;;14.50;99.90;;;;;;6187704;23;20020;-73
2022/08/21 02:29:12;;;;;;;1.13;0.65;;;14.50;99.90;;;;;;6212631;23;20155;-74
2022/08/21 02:31:38;;;;;;;1.80;0.68;;;14.30;99.90;;;;;;6211198;23;20054;-74
2022/08/21 02:34:04;;;;;;;0.75;0.60;;;14.40;99.90;;;;;;6212190;23;20437;-73
2022/08/21 02:36:30;;;;;;;1.23;0.80;;;14.30;99.90;;;;;;6212147;23;20026;-73
2022/08/21 02:38:56;;;;;;;;;;;14.30;99.90;;;;;;6212891;23;20292;-74
2022/08/21 02:41:22;;;;;;;1.08;0.60;;;14.40;99.90;;;;;;6211572;23;19919;-73
2022/08/21 02:43:48;;;;;;;0.85;0.60;;;14.40;99.90;;;;;;6212718;23;20017;-74
2022/08/21 02:46:17;;;;;;;1.13;0.80;;;14.40;99.90;;;;;;6212128;23;20023;-73
2022/08/21 02:48:43;;;;;;;0.60;0.50;;;14.30;99.90;;;;;;6186872;23;20440;-73
2022/08/21 02:51:13;;;;;;;0.95;0.70;;;14.40;99.90;;;;;;6212371;23;20016;-73
2022/08/21 02:53:39;;;;;;;1.80;0.80;;;14.30;99.90;;;;;;6186543;23;20028;-74
2022/08/21 02:56:08;;;;;;;0.75;0.60;;;14.40;99.90;;;;;;6213985;23;20414;-73
2022/08/21 02:58:40;;;;;;;1.35;0.77;;;14.30;99.90;;;;;;6186882;23;20427;-73
2022/08/21 03:01:09;;;;;;;0.90;0.85;;;14.30;99.90;;;;;;6212602;23;20020;-74
2022/08/21 03:03:36;;;;;;;1.58;0.95;;;14.30;99.90;;;;;;6212619;23;20027;-73
2022/08/21 03:06:03;;;;;;;1.38;0.90;;;14.30;99.90;;;;;;6211885;23;20686;-73
2022/08/21 03:08:28;;;;;;;2.22;1.00;;;14.20;99.90;;;;;;6212634;23;20051;-74
2022/08/21 03:10:55;;;;;;;0.80;0.70;;;14.30;99.90;;;;;;6212313;23;20401;-73
2022/08/21 03:13:22;;;;;;;1.05;0.70;;;14.30;99.90;;;;;;6215125;23;20021;-83
2022/08/21 03:15:48;;;;;;;;;;;14.20;99.90;;;;;;6218527;23;20044;-83
2022/08/21 03:18:14;;;;;;;1.13;0.90;;;14.30;99.90;;;;;;6217255;23;19919;-83
2022/08/21 03:20:41;;;;;;;2.17;1.30;;;14.30;99.90;;;;;;6217658;23;20017;-83
2022/08/21 03:23:08;;;;;;;1.83;1.02;;;14.20;99.90;;;;;;6213726;23;20020;-73
2022/08/21 03:25:35;;;;;;;1.45;1.00;;;14.10;99.90;;;;;;6212578;23;20315;-73
2022/08/21 03:28:03;;;;;;;2.08;1.17;;;14.10;99.90;;;;;;6212543;23;20031;-73
2022/08/21 03:30:31;;;;;;;1.67;1.00;;;14.10;99.90;;;;;;6212657;23;20024;-73
2022/08/21 03:33:00;;;;;;;1.95;0.93;;;14.10;99.90;;;;;;6212658;23;20401;-73
2022/08/21 03:35:27;;;;;;;1.40;0.90;;;14.10;99.90;;;;;;6212511;23;20020;-73
2022/08/21 03:37:54;;;;;;;1.40;0.82;;;14.20;99.90;;;;;;6212498;23;20098;-74
2022/08/21 03:40:21;;;;;;;2.42;1.15;;;14.10;99.90;;;;;;6212490;23;20019;-74
2022/08/21 03:42:47;;;;;;;1.17;0.93;;;14.10;99.90;;;;;;6212459;23;20032;-74
2022/08/21 03:45:14;;;;;;;1.67;0.93;;;14.00;99.90;;;;;;6212540;23;20407;-83
2022/08/21 03:47:52;;;;;;;1.08;0.90;;;14.00;99.90;;;;;;6214480;23;20091;-84
2022/08/21 03:50:18;;;;;;;0.82;0.80;;;14.00;99.90;;;;;;6214782;23;20016;-82
2022/08/21 03:52:44;;;;;;;0.93;0.80;;;13.90;99.90;;;;;;6215252;23;20082;-82
2022/08/21 03:55:10;;;;;;;2.00;1.10;;;14.00;99.90;;;;;;6214864;23;20012;-81
2022/08/21 03:57:36;;;;;;;1.20;1.10;;;13.90;99.90;;;;;;6214770;23;20019;-83
2022/08/21 04:00:04;;;;;;;2.33;1.20;;;13.90;99.90;;;;;;6214210;23;20023;-83
2022/08/21 04:02:30;;;;;;;2.47;1.10;;;14.00;99.90;;;;;;6164628;23;20094;-83
2022/08/21 04:04:56;;;;;;;1.90;1.20;;;13.90;99.90;;;;;;6215121;23;20016;-83
2022/08/21 04:07:21;;;;;;;1.20;1.00;;;14.00;99.90;;;;;;6214722;23;20090;-82
2022/08/21 04:09:47;;;;;;;1.67;1.33;;;13.90;99.90;;;;;;6214506;23;20017;-83
2022/08/21 04:12:13;;;;;;;2.70;1.17;;;13.90;99.90;;;;;;6215284;23;20059;-83
2022/08/21 04:14:39;;;;;;;1.40;0.98;;;14.00;99.90;;;;;;6216810;23;20024;-83
2022/08/21 04:17:05;;;;;;;2.78;1.10;;;13.80;99.90;;;;;;6216096;23;20092;-82
2022/08/21 04:19:33;;;;;;;1.15;1.00;;;13.90;99.90;;;;;;6217224;23;20016;-82
2022/08/21 04:21:59;;;;;;;2.13;1.33;;;13.90;99.90;;;;;;6191372;23;20015;-82
2022/08/21 04:24:25;;;;;;;1.85;1.40;;;14.00;99.90;;;;;;6215837;23;20021;-82
2022/08/21 04:26:50;;;;;;;1.92;1.48;;;13.80;99.90;;;;;;6191145;23;20020;-82
2022/08/21 04:29:16;;;;;;;2.47;1.30;;;13.80;99.90;;;;;;6214509;23;20020;-82
2022/08/21 04:31:43;;;;;;;2.08;1.30;;;13.90;99.90;;;;;;6214361;23;20027;-83
2022/08/21 04:34:09;;;;;;;2.15;0.98;;;14.00;99.90;;;;;;6214167;23;20028;-82
2022/08/21 04:36:35;;;;;;;1.65;1.00;;;14.00;99.90;;;;;;6213980;23;20457;-82
2022/08/21 04:39:01;;;;;;;1.20;1.10;;;14.00;99.90;;;;;;6189338;23;20047;-83
2022/08/21 04:41:27;;;;;;;;;;;14.00;99.90;;;;;;6214666;23;20017;-82
2022/08/21 04:43:54;;;;;;;1.73;1.10;;;13.90;99.90;;;;;;6215092;23;20005;-82
2022/08/21 04:46:20;;;;;;;1.75;1.10;;;14.00;99.90;;;;;;6188117;23;20027;-73
2022/08/21 04:48:45;;;;;;;1.95;1.05;;;13.90;99.90;;;;;;6186017;23;20016;-72
2022/08/21 04:51:22;;;;;;;1.67;1.00;;;13.90;99.90;;;;;;6211431;23;20446;-73
2022/08/21 04:53:57;;;;;;;1.33;1.00;;;14.00;99.90;;;;;;6186301;23;20338;-73
2022/08/21 04:56:24;;;;;;;1.48;1.20;;;14.00;99.90;;;;;;6210884;23;20342;-73
2022/08/21 04:58:52;;;;;;;1.30;1.00;;;13.90;99.90;;;;;;6211749;23;20023;-73
2022/08/21 05:01:22;;;;;;;1.55;1.20;;;14.10;99.90;;;;;;6211099;23;20059;-73
2022/08/21 05:03:50;;;;;;;1.98;1.20;;;14.10;99.90;;;;;;6210730;23;20024;-73
2022/08/21 05:06:17;;;;;;;1.63;1.20;;;14.10;99.90;;;;;;6210948;23;20027;-72
2022/08/21 05:08:46;;;;;;;1.25;0.90;;;14.10;99.90;;;;;;6210781;23;20031;-72
2022/08/21 05:11:13;;;;;;;1.58;1.20;;;14.00;99.90;;;;;;6210912;23;20029;-73
2022/08/21 05:13:41;;;;;;;1.83;1.23;;;14.00;99.90;;;;;;6186356;23;20405;-74
2022/08/21 05:16:07;;;;;;;2.33;1.23;;;14.10;99.90;;;;;;6210428;23;20079;-72
2022/08/21 05:18:32;;;;;;;;;;;14.20;99.90;;;;;;6186689;23;20020;-72
2022/08/21 05:20:58;;;;;;;1.80;1.00;;;14.10;99.90;;;;;;6211283;23;19986;-72
2022/08/21 05:23:24;;;;;;;1.38;1.00;;;14.20;99.90;;;;;;6210696;23;20013;-72
2022/08/21 05:25:51;;;;;;;;;;;14.20;99.90;;;;;;6211868;23;20023;-73
2022/08/21 05:28:17;;;;;;;1.65;1.20;;;14.30;99.90;;;;;;6211428;23;19944;-74
2022/08/21 05:30:44;;;;;;;1.40;1.00;;;14.30;99.90;;;;;;6210429;23;20090;-73
2022/08/21 05:33:10;;;;;;;2.13;0.90;;;14.20;99.90;;;;;;6185718;23;20024;-73
2022/08/21 05:35:37;;;;;;;0.85;0.70;;;14.30;99.90;;;;;;6210583;23;20032;-73
2022/08/21 05:38:03;;;;;;;1.33;1.00;;;14.30;99.90;;;;;;6185305;23;20044;-73
2022/08/21 05:40:29;;;;;;;2.17;1.10;;;14.50;99.90;;;;;;6211264;23;20008;-73
2022/08/21 05:42:56;;;;;;;1.20;0.90;;;14.50;99.90;;;;;;6212128;23;20091;-73
2022/08/21 05:45:28;;;;;;;1.30;1.10;;;14.50;99.90;;;;;;6210416;23;20021;-73
2022/08/21 05:47:54;;;;;;;1.40;1.00;;;14.50;99.90;;;;;;6209656;23;20098;-73
2022/08/21 05:50:20;;;;;;;1.30;1.13;;;14.60;99.90;;;;;;6185552;23;20092;-73
2022/08/21 05:52:46;;;;;;;;;;;14.70;99.90;;;;;;6211148;23;20028;-73
2022/08/21 05:55:12;;;;;;;1.83;1.20;;;14.60;99.90;;;;;;6210758;23;19922;-73
2022/08/21 05:57:41;;;;;;;3.03;1.00;;;14.80;99.90;;;;;;6211039;23;20040;-73
2022/08/21 06:00:10;;;;;;;1.40;1.10;;;14.80;99.90;;;;;;6210595;23;20091;-73
2022/08/21 06:02:35;;;;;;;1.23;0.90;;;14.80;99.90;;;;;;6184883;23;20563;-72
2022/08/21 06:05:01;;;;;;;1.40;1.00;;;14.90;99.90;;;;;;6183297;23;20092;-74
2022/08/21 06:07:28;;;;;;;1.35;1.02;;;15.20;99.90;;;;;;6211564;23;20052;-74
2022/08/21 06:09:54;;;;;;;2.42;1.00;;;15.10;99.90;;;;;;6215905;23;20400;-74
2022/08/21 06:12:20;;;;;;;1.52;1.02;;;15.30;99.90;;;;;;6215721;23;20067;-73
2022/08/21 06:14:45;;;;;;;0.88;0.70;;;15.50;99.90;;;;;;6191085;23;20023;-73
2022/08/21 06:17:13;;;;;;;2.03;1.00;;;15.50;99.90;;;;;;6216258;23;20019;-72
2022/08/21 06:19:39;;;;;;;1.85;0.90;;;15.60;99.90;;;;;;6216760;23;20043;-81
2022/08/21 06:22:05;;;;;;;;;;;15.90;99.90;;;;;;6216754;23;20016;-82
2022/08/21 06:24:31;;;;;;;1.65;0.90;;;16.30;99.90;;;;;;6214693;23;19911;-82
2022/08/21 06:26:57;;;;;;;2.58;1.30;;;16.80;99.90;;;;;;6215851;23;20008;-83
2022/08/21 06:29:24;;;;;;;2.35;1.15;;;17.00;99.90;;;;;;6243905;23;20087;-83
2022/08/21 06:31:51;;;;;;;1.48;1.08;;;17.60;99.90;;;;;;6243225;23;20016;-84
2022/08/21 06:34:18;;;;;;;2.40;1.20;;;18.00;99.90;;;;;;6245687;23;20012;-83
2022/08/21 06:36:44;;;;;;;1.85;1.10;;;18.50;99.90;;;;;;6216865;23;20020;-73
2022/08/21 06:39:09;;;;;;;1.63;1.08;;;19.00;99.90;;;;;;6191572;23;20091;-73
2022/08/21 06:41:35;;;;;;;1.73;1.00;;;19.40;99.90;;;;;;6216243;23;20016;-73
2022/08/21 06:44:01;;;;;;;1.98;0.90;;;19.50;99.90;;;;;;6191505;23;20012;-74
2022/08/21 06:46:29;;;;;;;3.72;1.23;;;19.50;99.90;;;;;;6216648;23;20085;-75
2022/08/21 06:48:56;;;;;;;2.63;1.23;;;19.50;99.90;;;;;;6217659;23;20020;-73
2022/08/21 06:51:22;;;;;;;2.60;1.23;;;19.30;99.90;;;;;;6217106;23;20071;-73
2022/08/21 06:53:48;;;;;;;2.90;1.30;;;19.20;99.90;;;;;;6214460;23;20020;-73
2022/08/21 06:56:14;;;;;;;;;;;19.20;99.90;;;;;;6242017;23;20020;-72
2022/08/21 06:58:39;;;;;;;3.58;1.58;;;19.20;99.90;;;;;;6190088;23;19965;-73
2022/08/21 07:01:05;;;;;;;3.10;1.30;;;19.50;99.90;;;;;;6242149;23;20012;-74
2022/08/21 07:03:32;;;;;;;;;;;19.70;99.90;;;;;;6242717;23;20583;-73
2022/08/21 07:05:58;;;;;;;2.28;1.02;;;19.90;99.90;;;;;;6216597;23;19934;-74
2022/08/21 07:08:25;;;;;;;2.35;1.13;;;20.20;99.90;;;;;;6216804;23;20450;-74
2022/08/21 07:10:52;;;;;;;1.63;0.95;;;20.50;99.90;;;;;;6191764;23;20023;-73
2022/08/21 07:13:18;;;;;;;2.10;1.10;;;20.70;99.90;;;;;;6217377;23;20444;-74
2022/08/21 07:15:44;;;;;;;;;;;20.90;99.90;;;;;;6244313;23;20016;-73
2022/08/21 07:18:12;;;;;;;3.33;1.27;;;20.80;99.90;;;;;;6215835;23;19957;-74
2022/08/21 07:20:37;;;;;;;2.47;1.23;;;21.10;99.90;;;;;;6191412;23;20019;-73
2022/08/21 07:23:04;;;;;;;;;;;21.30;99.90;;;;;;6217312;23;20016;-73
2022/08/21 07:25:31;;;;;;;3.13;1.33;;;21.50;99.90;;;;;;6216503;23;19966;-74
2022/08/21 07:27:56;;;;;;;3.20;1.10;;;21.60;99.90;;;;;;6216964;23;20073;-74
2022/08/21 07:30:23;;;;;;;;;;;21.90;99.90;;;;;;6217604;23;20090;-73
2022/08/21 07:32:51;;;;;;;3.70;1.33;;;21.90;99.90;;;;;;6217133;23;19916;-74
2022/08/21 07:35:18;;;;;;;4.15;1.20;;;21.90;99.90;;;;;;6216852;23;20024;-74
2022/08/21 07:37:44;;;;;;;2.47;1.10;;;21.90;99.90;;;;;;6216210;23;20008;-73
2022/08/21 07:40:10;;;;;;;3.55;1.40;;;21.90;99.90;;;;;;6216147;23;20020;-73
2022/08/21 07:42:41;;;;;;;2.65;1.10;;;21.90;99.40;;;;;;6216348;23;20019;-73
2022/08/21 07:45:07;;;;;;;1.45;0.80;;;22.10;99.90;;;;;;6216488;23;20027;-74
2022/08/21 07:47:33;;;;;;;2.55;1.02;;;22.40;99.90;;;;;;6190729;23;20016;-75
2022/08/21 07:49:59;;;;;;;2.60;0.98;;;22.30;98.90;;;;;;6216014;23;20031;-74
2022/08/21 07:52:24;;;;;;;;;;;22.20;99.50;;;;;;6216771;23;20101;-75
2022/08/21 07:54:50;;;;;;;1.95;0.82;;;22.30;99.20;;;;;;6216373;23;19916;-74
2022/08/21 07:57:16;;;;;;;3.65;1.27;;;22.30;99.20;;;;;;6217110;23;20012;-74
2022/08/21 07:59:42;;;;;;;1.73;0.80;;;22.50;99.30;;;;;;6216363;23;20016;-74
2022/08/21 08:02:07;;;;;;;3.58;1.13;;;22.50;98.70;;;;;;6191008;23;20016;-74
2022/08/21 08:04:33;;;;;;;1.85;0.82;;;22.60;99.20;;;;;;6216319;23;20092;-73
2022/08/21 08:06:59;;;;;;;3.33;1.02;;;22.70;99.30;;;;;;6216723;23;20020;-74
2022/08/21 08:09:24;;;;;;;3.05;1.00;;;22.50;99.10;;;;;;6191233;23;20024;-72
2022/08/21 08:11:51;;;;;;;2.92;1.00;;;22.50;98.70;;;;;;6216071;23;20441;-74
2022/08/21 08:14:16;;;;;;;1.95;0.90;;;22.50;99.50;;;;;;6214717;23;20139;-73
2022/08/21 08:16:42;;;;;;;1.73;0.93;;;22.60;99.30;;;;;;6216628;23;20437;-73
2022/08/21 08:19:08;;;;;;;1.23;0.77;;;22.80;99.40;;;;;;6192112;23;20042;-73
2022/08/21 08:21:35;;;;;;;2.42;0.95;;;23.00;99.10;;;;;;6216528;23;20428;-73
2022/08/21 08:24:01;;;;;;;3.70;1.30;;;23.00;99.60;;;;;;6215071;23;20016;-73
2022/08/21 08:26:28;;;;;;;2.90;0.90;;;23.00;99.10;;;;;;6191128;23;20020;-73
2022/08/21 08:28:53;;;;;;;2.25;0.90;;;22.90;99.30;;;;;;6243745;23;20126;-73
2022/08/21 08:31:19;;;;;;;3.30;1.17;;;23.00;99.10;;;;;;6216315;23;20091;-74
2022/08/21 08:33:45;;;;;;;1.90;0.70;;;23.00;99.20;;;;;;6216693;23;20107;-73
2022/08/21 08:36:17;;;;;;;2.10;0.85;;;23.20;99.40;;;;;;6190585;23;20356;-73
2022/08/21 08:38:43;;;;;;;2.58;1.05;;;23.20;99.10;;;;;;6190725;23;20011;-74
2022/08/21 08:41:18;;;;;;;2.78;0.90;;;22.90;99.00;;;;;;6216608;23;20153;-74
2022/08/21 08:43:53;;;;;;;3.20;1.10;;;22.70;99.30;;;;;;6243409;23;20059;-74
2022/08/21 08:46:38;;;;;;;1.40;0.68;;;22.60;99.80;;;;;;6190886;23;20016;-74
2022/08/21 08:49:14;;;;;;;2.13;0.80;;;22.30;99.80;;;;;;6216103;23;20066;-74
2022/08/21 08:52:00;;;;;;;2.05;0.70;;;22.20;99.90;;;;;;6216333;23;20074;-74
2022/08/21 08:54:31;;;;;;;4.05;1.10;;;22.00;99.90;;;;;;6216710;23;20050;-74
2022/08/21 08:56:59;;;;;;;3.15;1.10;;;22.10;99.90;;;;;;6216078;23;20031;-74
2022/08/21 08:59:40;;;;;;;2.17;0.70;;;22.10;99.90;;;;;;6241823;23;20023;-73
2022/08/21 09:02:10;;;;;;;1.75;0.65;;;22.50;99.90;;;;;;6190613;23;20052;-73
2022/08/21 09:04:36;;;;;;;3.95;1.02;;;22.40;99.90;;;;;;6216725;23;20044;-73
2022/08/21 09:07:14;;;;;;;2.50;0.90;;;22.60;99.90;;;;;;6216609;23;20097;-74
2022/08/21 09:10:08;;;;;;;2.17;1.00;;;22.60;99.90;;;;;;6210973;23;20060;-74
2022/08/21 09:13:01;;;;;;;2.47;1.00;;;23.00;99.90;;;;;;6213073;23;20513;-74
2022/08/21 09:15:36;;;;;;;2.53;0.98;;;23.10;99.90;;;;;;6211559;23;20028;-73
2022/08/21 09:18:28;;;;;;;2.15;1.10;;;22.80;99.90;;;;;;6209578;23;20013;-74
2022/08/21 09:21:21;;;;;;;2.13;0.80;;;22.70;99.90;;;;;;6208382;23;20023;-74
2022/08/21 09:24:16;;;;;;;3.33;0.85;;;22.60;99.90;;;;;;6210415;23;20035;-74
2022/08/21 09:26:53;;;;;;;4.45;1.13;;;22.40;99.90;;;;;;6155404;23;20017;-74
2022/08/21 09:29:25;;;;;;;3.35;1.10;;;22.30;99.90;;;;;;6211036;23;20438;-74
2022/08/21 09:31:52;;;;;;;1.95;0.98;;;22.50;99.90;;;;;;6210514;23;20020;-73
2022/08/21 09:34:29;;;;;;;2.95;1.00;;;23.10;99.90;;;;;;6210640;23;20019;-74
2022/08/21 09:36:56;;;;;;;3.67;1.20;;;23.20;99.90;;;;;;6210912;23;20016;-74
2022/08/21 09:39:31;;;;;;;3.88;1.15;;;23.10;99.80;;;;;;6185873;23;20020;-76
2022/08/21 09:42:06;;;;;;;3.55;1.15;;;23.00;99.90;;;;;;6212839;23;20097;-74
2022/08/21 09:44:38;;;;;;;2.72;0.90;;;22.90;99.90;;;;;;6211131;23;20020;-74
2022/08/21 09:47:05;;;;;;;4.50;1.20;;;22.70;99.90;;;;;;6210424;23;20024;-75
2022/08/21 09:49:36;;;;;;;3.30;1.13;;;22.20;99.90;;;;;;6211187;23;20024;-75
2022/08/21 09:52:06;;;;;;;3.25;1.10;;;22.00;99.90;;;;;;6211123;23;20017;-75
2022/08/21 09:54:39;;;;;;;2.97;1.02;;;22.30;99.90;;;;;;6211128;23;20020;-75
2022/08/21 09:59:52;;;;;;;1.80;0.82;;;23.00;99.90;;;;;;6210231;23;20016;-74
2022/08/21 10:02:27;;;;;;;2.58;0.95;;;23.10;99.70;;;;;;6210820;23;20143;-73
2022/08/21 10:04:58;;;;;;;2.47;1.02;;;22.90;99.60;;;;;;6210847;23;20028;-74
2022/08/21 10:07:27;;;;;;;1.55;0.75;;;22.70;99.60;;;;;;6210248;23;20361;-74
2022/08/21 10:10:00;;;;;;;2.95;0.88;;;22.90;99.90;;;;;;6212643;23;20021;-73
2022/08/21 10:12:41;;;;;;;2.97;0.90;;;23.00;99.90;;;;;;6211934;23;20126;-73
2022/08/21 10:15:09;;;;;;;2.25;0.80;;;23.30;99.30;;;;;;6187335;23;20363;-74
2022/08/21 10:17:57;;;;;;;3.20;1.00;;;23.80;99.40;;;;;;6212816;23;20024;-75
2022/08/21 10:20:32;;;;;;;2.20;0.82;;;24.00;98.40;;;;;;6211754;23;20540;-81
2022/08/21 10:23:26;;;;;;;2.55;0.88;;;24.30;97.90;;;;;;6214500;23;20441;-83
2022/08/21 10:26:35;;;;;;;2.05;0.93;;;24.50;97.90;;;;;;6215406;23;20315;-83
2022/08/21 10:29:29;;;;;;;1.67;0.70;;;24.70;97.70;;;;;;6190510;23;20023;-84
2022/08/21 10:32:20;;;;;;;1.73;0.73;;;24.80;97.80;;;;;;6215731;23;20047;-84
2022/08/21 10:34:59;;;;;;;1.48;0.57;;;24.50;97.90;;;;;;6190231;23;20014;-85
2022/08/21 10:37:27;;;;;;;1.52;0.70;;;24.20;98.10;;;;;;6215382;23;20023;-84
2022/08/21 10:40:03;;;;;;;1.80;0.50;;;23.90;98.40;;;;;;6215216;23;20067;-82
2022/08/21 10:42:55;;;;;;;1.90;0.60;;;23.60;98.50;;;;;;6215436;23;20012;-83
2022/08/21 10:45:42;;;;;;;1.60;0.60;;;23.30;98.50;;;;;;6215540;23;20593;-83
2022/08/21 10:48:13;;;;;;;;;;;23.00;98.70;;;;;;6215587;23;20027;-83
2022/08/21 10:50:46;;;;;;;1.70;0.75;;;22.70;98.90;;;;;;6213937;23;20336;-83
2022/08/21 10:53:36;;;;;;;3.30;1.00;;;22.40;99.30;;;;;;6214254;23;20435;-83
2022/08/21 10:56:23;;;;;;;1.45;0.80;;;22.20;99.90;;;;;;6214673;23;20323;-84
2022/08/21 10:59:11;;;;;;;0.60;0.50;;;22.10;99.90;;;;;;6212954;23;20012;-83
2022/08/21 11:01:49;;;;;;;2.40;0.70;;;22.10;99.90;;;;;;6211869;23;20016;-73
2022/08/21 11:04:38;;;;;;;1.65;0.70;;;22.00;99.90;;;;;;6211952;23;20008;-74
2022/08/21 11:07:15;;;;;;;2.83;0.90;;;22.00;99.90;;;;;;6187123;23;20020;-75
2022/08/21 11:09:45;;;;;;;2.50;0.90;;;21.80;99.90;;;;;;6211084;23;20323;-74
2022/08/21 11:12:23;;;;;;;1.10;0.60;;;21.90;99.90;;;;;;6212025;23;20066;-75
2022/08/21 11:14:55;;;;;;;1.98;0.77;;;22.40;99.90;;;;;;6209649;23;20063;-74
2022/08/21 11:17:43;;;;;;;1.38;0.57;;;22.50;99.90;;;;;;6212415;23;20469;-84
2022/08/21 11:20:24;;;;;;;2.65;1.00;;;22.90;99.90;;;;;;6214402;23;20020;-84
2022/08/21 11:22:57;;;;;;;1.60;0.80;;;23.30;99.90;;;;;;6213169;23;20017;-84
2022/08/21 11:25:31;;;;;;;2.60;0.80;;;23.80;99.90;;;;;;6214180;23;20450;-83
2022/08/21 11:28:22;;;;;;;2.30;0.75;;;24.10;99.20;;;;;;6213445;23;20087;-82
2022/08/21 11:31:14;;;;;;;1.83;0.70;;;24.10;98.50;;;;;;6186522;23;20030;-73
2022/08/21 11:34:10;;;;;;;1.35;0.60;;;24.40;99.10;;;;;;6212082;23;20016;-73
2022/08/21 11:36:56;;;;;;;1.52;0.82;;;24.90;99.10;;;;;;6210585;23;20110;-71
2022/08/21 11:39:49;;;;;;;2.03;0.70;;;25.10;98.50;;;;;;6185532;23;20016;-74
2022/08/21 11:42:14;;;;;;;1.00;0.60;;;25.60;98.10;;;;;;6210602;23;20042;-73
2022/08/21 11:45:12;;;;;;;2.08;0.80;;;26.00;97.70;;;;;;6185547;23;20766;-72
2022/08/21 11:48:05;;;;;;;1.08;0.60;;;25.80;96.70;;;;;;6210243;23;20020;-72
2022/08/21 11:50:32;;;;;;;1.73;0.60;;;25.60;97.50;;;;;;6209492;23;20009;-72
2022/08/21 11:53:09;;;;;;;2.10;1.00;;;25.10;97.10;;;;;;6210784;23;20320;-73
2022/08/21 11:56:06;;;;;;;2.08;0.80;;;24.80;97.80;;;;;;6214849;23;20099;-81
2022/08/21 11:58:40;;;;;;;1.75;0.60;;;24.30;97.60;;;;;;6187974;23;20009;-74
2022/08/21 12:01:16;;;;;;;1.85;0.70;;;24.10;97.90;;;;;;6209399;23;20012;-73
2022/08/21 12:03:57;;;;;;;1.88;0.70;;;23.80;97.90;;;;;;6209357;23;20048;-73
2022/08/21 12:06:36;;;;;;;3.55;1.20;;;24.10;98.50;;;;;;6208703;23;20088;-73
2022/08/21 12:09:09;;;;;;;2.92;1.17;;;24.10;97.70;;;;;;6209412;23;20028;-75
2022/08/21 12:11:49;;;;;;;2.15;0.80;;;24.30;97.30;;;;;;6185248;23;20048;-74
2022/08/21 12:14:18;;;;;;;1.80;0.82;;;24.50;97.40;;;;;;6211443;23;20051;-73
2022/08/21 12:16:48;;;;;;;3.92;1.20;;;24.90;97.00;;;;;;6209913;23;20108;-75
2022/08/21 12:19:28;;;;;;;2.85;1.10;;;24.60;95.50;;;;;;6211401;23;20021;-74
2022/08/21 12:21:57;;;;;;;2.53;1.08;;;24.40;95.80;;;;;;6183520;23;20031;-74
2022/08/21 12:24:46;;;;;;;2.88;1.10;;;24.40;95.90;;;;;;6184454;23;20399;-74
2022/08/21 12:27:21;;;;;;;2.00;0.82;;;24.70;95.90;;;;;;6209725;23;20016;-75
2022/08/21 12:29:50;;;;;;;2.00;1.00;;;24.90;95.80;;;;;;6208952;23;20016;-75
2022/08/21 12:32:16;;;;;;;0.82;0.52;;;25.10;95.90;;;;;;6178952;23;20017;-74
2022/08/21 12:34:54;;;;;;;1.52;0.80;;;25.40;96.20;;;;;;6208038;23;20088;-74
2022/08/21 12:37:24;;;;;;;1.90;0.80;;;25.20;96.30;;;;;;6210596;23;20072;-74
2022/08/21 12:39:53;;;;;;;1.98;0.90;;;25.10;95.70;;;;;;6184844;23;20055;-74
2022/08/21 12:42:24;;;;;;;1.83;1.13;;;24.70;96.00;;;;;;6212033;23;20008;-75
2022/08/21 12:44:54;;;;;;;1.92;0.90;;;24.50;96.50;;;;;;6211049;23;20020;-74
2022/08/21 12:47:51;;;;;;;2.40;0.90;;;24.20;96.70;;;;;;6210426;23;20446;-73
2022/08/21 12:50:35;;;;;;;2.25;1.00;;;24.10;96.60;;;;;;6210625;23;20020;-73
2022/08/21 12:53:07;;;;;;;1.30;0.90;;;24.30;96.70;;;;;;6210956;23;20348;-73
2022/08/21 12:55:34;;;;;;;3.17;0.80;;;24.70;96.00;;;;;;6210632;23;20013;-73
2022/08/21 12:58:00;;;;;;;3.38;0.90;;;25.00;95.00;;;;;;6210548;23;20178;-80
2022/08/21 13:00:28;;;;;;;1.83;0.80;;;25.00;94.90;;;;;;6211848;23;20020;-80
2022/08/21 13:02:56;;;;;;;3.00;0.80;;;24.80;94.70;;;;;;6212015;23;20008;-80
2022/08/21 13:05:24;;;;;;;2.30;0.70;;;24.50;95.10;;;;;;6186881;23;20021;-82
2022/08/21 13:07:50;;;;;;;1.20;0.70;;;24.10;95.50;;;;;;6189395;23;20013;-81
2022/08/21 13:10:27;;;;;;;3.55;0.82;;;23.80;96.00;;;;;;6217429;23;20027;-82